createdAt,value
2023-09-25T00:01:12.755Z,102328.00
2023-09-25T00:03:39.376Z,102317.31
2023-09-25T00:06:06.192Z,102327.16
2023-09-25T00:08:32.681Z,102322.81
2023-09-25T00:10:59.218Z,102325.59
2023-09-25T00:13:25.668Z,102325.72
2023-09-25T00:15:52.267Z,102326.69
2023-09-25T00:18:19.197Z,102325.00
2023-09-25T00:20:45.738Z,102325.13
2023-09-25T00:23:12.566Z,102332.31
2023-09-25T00:25:39.012Z,102328.78
2023-09-25T00:28:05.550Z,102328.06
2023-09-25T00:30:32.104Z,102326.41
2023-09-25T00:32:58.666Z,102325.56
2023-09-25T00:35:25.191Z,102330.03
2023-09-25T00:37:51.593Z,102327.38
2023-09-25T00:40:22.785Z,102322.16
2023-09-25T00:42:51.320Z,102328.47
2023-09-25T00:45:17.764Z,102332.13
2023-09-25T00:47:44.663Z,102319.75
2023-09-25T00:50:11.521Z,102318.91
2023-09-25T00:52:40.785Z,102318.06
2023-09-25T00:55:07.597Z,102320.84
2023-09-25T00:57:38.470Z,102322.69
2023-09-25T01:00:05.602Z,102327.28
2023-09-25T01:02:32.522Z,102320.97
2023-09-25T01:05:03.214Z,102327.28
2023-09-25T01:07:30.153Z,102322.09
2023-09-25T01:10:17.370Z,102318.59
2023-09-25T01:12:47.277Z,102318.72
2023-09-25T01:15:15.296Z,102315.34
2023-09-25T01:17:42.627Z,102316.31
2023-09-25T01:20:15.216Z,102322.50
2023-09-25T01:22:46.159Z,102315.59
2023-09-25T01:25:12.745Z,102305.03
2023-09-25T01:27:40.704Z,102302.50
2023-09-25T01:30:09.998Z,102308.69
2023-09-25T01:32:39.819Z,102305.28
2023-09-25T01:35:09.159Z,102304.44
2023-09-25T01:37:35.837Z,102299.22
2023-09-25T01:40:02.755Z,102297.56
2023-09-25T01:42:29.325Z,102300.22
2023-09-25T01:44:55.796Z,102301.22
2023-09-25T01:47:22.265Z,102303.03
2023-09-25T01:49:48.744Z,102312.88
2023-09-25T01:52:17.463Z,102297.94
2023-09-25T01:54:44.181Z,102297.94
2023-09-25T01:57:10.813Z,102301.59
2023-09-25T01:59:37.387Z,102305.22
2023-09-25T02:02:03.877Z,102299.88
2023-09-25T02:04:30.569Z,102298.19
2023-09-25T02:06:57.041Z,102291.16
2023-09-25T02:09:23.604Z,102301.00
2023-09-25T02:11:50.713Z,102292.13
2023-09-25T02:14:17.199Z,102290.44
2023-09-25T02:16:43.657Z,102289.59
2023-09-25T02:19:10.169Z,102285.22
2023-09-25T02:21:37.017Z,102291.56
2023-09-25T02:24:03.588Z,102282.72
2023-09-25T02:26:30.046Z,102280.16
2023-09-25T02:28:56.532Z,102274.97
2023-09-25T02:31:23.083Z,102273.25
2023-09-25T02:33:49.583Z,102268.06
2023-09-25T02:36:16.375Z,102270.72
2023-09-25T02:38:42.903Z,102265.50
2023-09-25T02:41:09.369Z,102272.63
2023-09-25T02:43:35.801Z,102269.13
2023-09-25T02:46:02.341Z,102273.63
2023-09-25T02:48:28.932Z,102269.25
2023-09-25T02:50:55.429Z,102263.06
2023-09-25T02:53:21.896Z,102257.84
2023-09-25T02:55:51.515Z,102244.50
2023-09-25T02:58:18.619Z,102251.69
2023-09-25T03:00:46.295Z,102250.00
2023-09-25T03:03:15.483Z,102245.63
2023-09-25T03:05:42.365Z,102250.13
2023-09-25T03:08:08.888Z,102256.44
2023-09-25T03:10:35.355Z,102261.78
2023-09-25T03:13:01.811Z,102260.06
2023-09-25T03:15:28.685Z,102259.22
2023-09-25T03:17:55.185Z,102257.66
2023-09-25T03:20:21.651Z,102259.47
2023-09-25T03:22:48.245Z,102257.78
2023-09-25T03:25:16.093Z,102265.91
2023-09-25T03:27:44.603Z,102267.75
2023-09-25T03:30:11.871Z,102260.72
2023-09-25T03:32:38.718Z,102264.38
2023-09-25T03:35:05.432Z,102265.47
2023-09-25T03:37:32.271Z,102266.31
2023-09-25T03:39:58.808Z,102265.59
2023-09-25T03:42:25.374Z,102257.59
2023-09-25T03:44:52.567Z,102254.09
2023-09-25T03:47:20.224Z,102255.91
2023-09-25T03:49:46.664Z,102256.03
2023-09-25T03:52:13.255Z,102249.00
2023-09-25T03:54:39.968Z,102245.47
2023-09-25T03:57:06.519Z,102249.38
2023-09-25T03:59:32.987Z,102245.84
2023-09-25T04:01:59.472Z,102238.88
2023-09-25T04:04:25.964Z,102251.34
2023-09-25T04:06:52.468Z,102254.16
2023-09-25T04:09:19.023Z,102259.59
2023-09-25T04:11:45.540Z,102255.13
2023-09-25T04:14:12.727Z,102261.44
2023-09-25T04:16:40.144Z,102269.53
2023-09-25T04:19:06.898Z,102275.72
2023-09-25T04:21:33.985Z,102267.84
2023-09-25T04:24:04.696Z,102259.13
2023-09-25T04:26:31.171Z,102272.47
2023-09-25T04:28:58.313Z,102278.66
2023-09-25T04:31:24.826Z,102275.25
2023-09-25T04:33:53.308Z,102285.06
2023-09-25T04:36:19.983Z,102278.03
2023-09-25T04:38:46.520Z,102294.06
2023-09-25T04:41:13.018Z,102293.34
2023-09-25T04:43:39.510Z,102288.16
2023-09-25T04:46:06.056Z,102291.66
2023-09-25T04:48:32.776Z,102287.28
2023-09-25T04:50:59.382Z,102292.63
2023-09-25T04:53:25.943Z,102290.94
2023-09-25T04:55:53.723Z,102291.78
2023-09-25T04:58:20.462Z,102296.28
2023-09-25T05:00:47.273Z,102294.56
2023-09-25T05:03:13.898Z,102293.72
2023-09-25T05:05:40.429Z,102305.38
2023-09-25T05:08:06.954Z,102293.00
2023-09-25T05:10:33.413Z,102298.34
2023-09-25T05:12:59.970Z,102306.34
2023-09-25T05:15:26.714Z,102296.75
2023-09-25T05:17:53.313Z,102307.31
2023-09-25T05:20:20.816Z,102312.75
2023-09-25T05:22:48.543Z,102314.47
2023-09-25T05:25:15.340Z,102313.63
2023-09-25T05:27:43.226Z,102309.25
2023-09-25T05:30:10.989Z,102303.91
2023-09-25T05:32:38.307Z,102298.69
2023-09-25T05:35:05.725Z,102299.66
2023-09-25T05:37:32.328Z,102312.03
2023-09-25T05:39:58.788Z,102304.19
2023-09-25T05:42:25.881Z,102306.00
2023-09-25T05:44:52.432Z,102311.34
2023-09-25T05:47:18.995Z,102314.00
2023-09-25T05:49:45.467Z,102309.66
2023-09-25T05:52:12.236Z,102313.28
2023-09-25T05:54:38.728Z,102314.25
2023-09-25T05:57:06.930Z,102317.75
2023-09-25T05:59:35.618Z,102315.22
2023-09-25T06:02:03.218Z,102328.44
2023-09-25T06:04:30.187Z,102321.41
2023-09-25T06:06:56.854Z,102323.94
2023-09-25T06:09:23.546Z,102324.06
2023-09-25T06:11:50.274Z,102335.59
2023-09-25T06:14:16.812Z,102322.25
2023-09-25T06:16:44.166Z,102323.09
2023-09-25T06:19:13.581Z,102315.94
2023-09-25T06:21:40.184Z,102313.28
2023-09-25T06:24:10.603Z,102322.84
2023-09-25T06:26:40.757Z,102319.06
2023-09-25T06:29:09.569Z,102314.47
2023-09-25T06:31:46.140Z,102321.50
2023-09-25T06:34:16.680Z,102327.56
2023-09-25T06:36:43.289Z,102326.59
2023-09-25T06:39:10.510Z,102331.78
2023-09-25T06:41:38.280Z,102327.19
2023-09-25T06:44:06.262Z,102327.88
2023-09-25T06:46:36.020Z,102324.13
2023-09-25T06:49:02.712Z,102328.38
2023-09-25T06:51:29.998Z,102336.25
2023-09-25T06:53:56.999Z,102335.16
2023-09-25T06:56:23.814Z,102336.56
2023-09-25T06:58:52.329Z,102341.66
2023-09-25T07:01:19.465Z,102345.78
2023-09-25T07:03:46.963Z,102346.38
2023-09-25T07:06:13.925Z,102343.31
2023-09-25T07:08:40.467Z,102336.75
2023-09-25T07:11:06.944Z,102338.19
2023-09-25T07:13:33.558Z,102339.78
2023-09-25T07:16:03.918Z,102334.03
2023-09-25T07:18:30.841Z,102334.53
2023-09-25T07:20:57.412Z,102333.16
2023-09-25T07:23:24.455Z,102337.38
2023-09-25T07:25:51.005Z,102342.34
2023-09-25T07:28:17.624Z,102342.78
2023-09-25T07:30:47.457Z,102339.88
2023-09-25T07:33:14.258Z,102341.31
2023-09-25T07:35:41.391Z,102341.63
2023-09-25T07:38:07.901Z,102338.44
2023-09-25T07:40:34.679Z,102338.75
2023-09-25T07:43:01.286Z,102333.59
2023-09-25T07:45:27.873Z,102334.03
2023-09-25T07:47:55.942Z,102339.00
2023-09-25T07:50:26.021Z,102340.31
2023-09-25T07:52:55.862Z,102338.91
2023-09-25T07:55:22.715Z,102333.75
2023-09-25T07:57:50.313Z,102334.81
2023-09-25T08:00:22.895Z,102332.72
2023-09-25T08:02:51.198Z,102327.50
2023-09-25T08:05:21.024Z,102324.69
2023-09-25T08:07:47.915Z,102319.09
2023-09-25T08:10:14.956Z,102327.66
2023-09-25T08:12:41.639Z,102327.25
2023-09-25T08:15:08.901Z,102332.03
2023-09-25T08:17:35.536Z,102324.34
2023-09-25T08:20:02.393Z,102311.28
2023-09-25T08:22:28.926Z,102306.78
2023-09-25T08:24:55.388Z,102303.53
2023-09-25T08:27:22.059Z,102304.56
2023-09-25T08:29:48.802Z,102308.22
2023-09-25T08:32:15.436Z,102312.00
2023-09-25T08:34:42.711Z,102310.38
2023-09-25T08:37:09.226Z,102311.19
2023-09-25T08:39:35.762Z,102310.78
2023-09-25T08:42:02.323Z,102302.72
2023-09-25T08:44:28.856Z,102305.81
2023-09-25T08:46:55.731Z,102305.78
2023-09-25T08:49:23.597Z,102307.22
2023-09-25T08:51:50.415Z,102316.47
2023-09-25T08:54:19.184Z,102316.16
2023-09-25T08:56:46.524Z,102319.41
2023-09-25T08:59:13.162Z,102310.78
2023-09-25T09:01:39.883Z,102319.78
2023-09-25T09:04:08.250Z,102326.81
2023-09-25T09:06:34.955Z,102331.97
2023-09-25T09:09:01.705Z,102331.34
2023-09-25T09:11:29.221Z,102341.47
2023-09-25T09:13:56.761Z,102335.94
2023-09-25T09:16:23.360Z,102339.63
2023-09-25T09:18:50.463Z,102343.81
2023-09-25T09:21:28.281Z,102340.63
2023-09-25T09:23:56.876Z,102329.66
2023-09-25T09:26:24.635Z,102337.88
2023-09-25T09:28:54.555Z,102341.56
2023-09-25T09:31:21.744Z,102339.72
2023-09-25T09:33:48.807Z,102337.03
2023-09-25T09:36:15.752Z,102332.03
2023-09-25T09:38:42.912Z,102333.34
2023-09-25T09:41:09.885Z,102336.88
2023-09-25T09:43:37.248Z,102343.69
2023-09-25T09:46:05.599Z,102345.53
2023-09-25T09:48:33.001Z,102345.22
2023-09-25T09:51:03.479Z,102346.75
2023-09-25T09:53:30.151Z,102346.16
2023-09-25T09:55:57.517Z,102336.22
2023-09-25T09:58:27.848Z,102338.75
2023-09-25T10:00:58.497Z,102346.81
2023-09-25T10:03:25.819Z,102339.59
2023-09-25T10:05:54.142Z,102328.69
2023-09-25T10:08:20.782Z,102328.59
2023-09-25T10:10:51.299Z,102332.78
2023-09-25T10:13:27.109Z,102329.81
2023-09-25T10:16:00.742Z,102321.13
2023-09-25T10:18:27.696Z,102317.41
2023-09-25T10:21:09.621Z,102315.22
2023-09-25T10:23:36.653Z,102328.84
2023-09-25T10:26:06.950Z,102322.47
2023-09-25T10:28:34.667Z,102329.84
2023-09-25T10:31:01.986Z,102333.38
2023-09-25T10:33:30.184Z,102334.03
2023-09-25T10:36:04.953Z,102348.47
2023-09-25T10:38:36.133Z,102349.94
2023-09-25T10:41:07.314Z,102342.34
2023-09-25T10:43:34.508Z,102349.19
2023-09-25T10:46:01.856Z,102340.44
2023-09-25T10:48:29.098Z,102342.44
2023-09-25T10:50:55.892Z,102339.56
2023-09-25T10:53:25.555Z,102331.94
2023-09-25T10:55:52.108Z,102336.81
2023-09-25T10:58:19.589Z,102343.50
2023-09-25T11:00:47.638Z,102346.63
2023-09-25T11:03:14.547Z,102341.75
2023-09-25T11:05:41.759Z,102342.91
2023-09-25T11:08:15.612Z,102337.81
2023-09-25T11:10:42.198Z,102339.94
2023-09-25T11:15:38.133Z,102347.94
2023-09-25T11:18:07.308Z,102340.34
2023-09-25T11:20:34.542Z,102341.47
2023-09-25T11:23:20.069Z,102352.38
2023-09-25T11:25:49.066Z,102329.44
2023-09-25T11:28:18.284Z,102349.63
2023-09-25T11:30:47.941Z,102350.75
2023-09-25T11:33:20.315Z,102352.75
2023-09-25T11:35:48.831Z,102354.06
2023-09-25T11:38:19.915Z,102350.00
2023-09-25T11:40:46.936Z,102342.25
2023-09-25T11:43:14.129Z,102357.66
2023-09-25T11:45:41.388Z,102355.13
2023-09-25T11:48:10.006Z,102360.81
2023-09-25T11:50:36.634Z,102359.97
2023-09-25T11:53:03.156Z,102362.09
2023-09-25T11:55:30.025Z,102365.91
2023-09-25T11:57:56.655Z,102370.44
2023-09-25T12:00:29.086Z,102360.88
2023-09-25T12:02:56.439Z,102360.03
2023-09-25T12:05:23.363Z,102364.69
2023-09-25T12:07:51.052Z,102356.94
2023-09-25T12:10:18.953Z,102354.41
2023-09-25T12:12:46.156Z,102358.09
2023-09-25T12:15:13.224Z,102362.75
2023-09-25T12:17:42.365Z,102363.75
2023-09-25T12:20:14.131Z,102357.81
2023-09-25T12:22:45.270Z,102363.34
2023-09-25T12:25:13.068Z,102369.53
2023-09-25T12:27:43.649Z,102361.63
2023-09-25T12:30:14.642Z,102368.41
2023-09-25T12:32:41.760Z,102361.91
2023-09-25T12:35:08.587Z,102377.56
2023-09-25T12:37:35.208Z,102371.06
2023-09-25T12:40:02.133Z,102373.59
2023-09-25T12:42:39.200Z,102365.53
2023-09-25T12:45:14.573Z,102370.59
2023-09-25T12:47:41.564Z,102373.28
2023-09-25T12:50:08.354Z,102370.59
2023-09-25T12:52:34.875Z,102378.63
2023-09-25T12:55:03.340Z,102371.44
2023-09-25T12:57:29.895Z,102371.28
2023-09-25T12:59:57.353Z,102374.81
2023-09-25T13:02:23.989Z,102369.16
2023-09-25T13:04:50.521Z,102375.22
2023-09-25T13:07:17.500Z,102363.50
2023-09-25T13:09:44.263Z,102367.03
2023-09-25T13:12:10.888Z,102361.50
2023-09-25T13:14:37.466Z,102361.34
2023-09-25T13:17:04.035Z,102361.19
2023-09-25T13:19:31.619Z,102358.34
2023-09-25T13:21:58.287Z,102350.69
2023-09-25T13:24:26.178Z,102355.66
2023-09-25T13:26:52.789Z,102362.41
2023-09-25T13:29:19.252Z,102367.66
2023-09-25T13:31:45.795Z,102366.66
2023-09-25T13:34:12.352Z,102372.03
2023-09-25T13:36:38.892Z,102374.72
2023-09-25T13:39:05.370Z,102378.22
2023-09-25T13:41:31.997Z,102367.34
2023-09-25T13:43:58.766Z,102372.56
2023-09-25T13:46:25.832Z,102376.75
2023-09-25T13:48:52.417Z,102383.69
2023-09-25T13:51:18.945Z,102387.06
2023-09-25T13:53:45.401Z,102379.69
2023-09-25T13:56:11.833Z,102379.56
2023-09-25T13:58:38.303Z,102383.09
2023-09-25T14:01:06.842Z,102373.47
2023-09-25T14:03:33.785Z,102375.53
2023-09-25T14:06:03.920Z,102370.16
2023-09-25T14:08:30.815Z,102372.72
2023-09-25T14:10:58.408Z,102375.25
2023-09-25T14:13:24.886Z,102375.25
2023-09-25T14:15:51.408Z,102367.88
2023-09-25T14:18:17.980Z,102369.44
2023-09-25T14:20:44.479Z,102364.91
2023-09-25T14:23:10.983Z,102360.53
2023-09-25T14:25:37.575Z,102368.44
2023-09-25T14:28:04.323Z,102369.28
2023-09-25T14:30:30.950Z,102366.28
2023-09-25T14:32:57.805Z,102366.94
2023-09-25T14:35:26.624Z,102368.63
2023-09-25T14:37:53.424Z,102365.09
2023-09-25T14:40:20.001Z,102370.47
2023-09-25T14:42:51.228Z,102370.47
2023-09-25T14:45:17.965Z,102373.16
2023-09-25T14:47:45.145Z,102372.31
2023-09-25T14:50:13.001Z,102386.75
2023-09-25T14:52:40.249Z,102384.75
2023-09-25T14:55:07.203Z,102388.28
2023-09-25T14:57:33.750Z,102387.44
2023-09-25T15:00:00.413Z,102388.44
2023-09-25T15:02:27.703Z,102385.75
2023-09-25T15:04:54.346Z,102383.22
2023-09-25T15:07:20.868Z,102380.53
2023-09-25T15:09:47.632Z,102384.91
2023-09-25T15:12:14.298Z,102383.75
2023-09-25T15:14:40.744Z,102382.06
2023-09-25T15:17:07.291Z,102392.81
2023-09-25T15:19:33.757Z,102379.38
2023-09-25T15:22:00.356Z,102383.75
2023-09-25T15:24:26.991Z,102376.56
2023-09-25T15:26:53.553Z,102380.09
2023-09-25T15:29:20.040Z,102377.41
2023-09-25T15:31:46.528Z,102383.75
2023-09-25T15:34:13.044Z,102378.53
2023-09-25T15:36:39.897Z,102385.59
2023-09-25T15:39:07.639Z,102388.28
2023-09-25T15:41:34.529Z,102385.59
2023-09-25T15:44:02.354Z,102387.59
2023-09-25T15:46:28.884Z,102388.59
2023-09-25T15:51:22.582Z,102393.44
2023-09-25T15:53:49.765Z,102381.00
2023-09-25T15:56:16.446Z,102383.84
2023-09-25T15:58:42.908Z,102387.53
2023-09-25T16:01:09.470Z,102387.69
2023-09-25T16:03:38.342Z,102386.00
2023-09-25T16:06:04.951Z,102386.97
2023-09-25T16:08:31.441Z,102402.25
2023-09-25T16:10:57.878Z,102401.56
2023-09-25T16:13:24.313Z,102394.53
2023-09-25T16:15:50.864Z,102393.81
2023-09-25T16:18:17.458Z,102400.19
2023-09-25T16:20:44.646Z,102407.41
2023-09-25T16:23:11.083Z,102404.88
2023-09-25T16:25:39.043Z,102405.00
2023-09-25T16:28:05.626Z,102403.47
2023-09-25T16:30:32.128Z,102401.78
2023-09-25T16:32:58.661Z,102405.44
2023-09-25T16:35:25.143Z,102409.13
2023-09-25T16:37:53.843Z,102410.81
2023-09-25T16:40:20.407Z,102420.91
2023-09-25T16:42:46.940Z,102421.91
2023-09-25T16:45:13.531Z,102421.19
2023-09-25T16:47:40.063Z,102419.50
2023-09-25T16:50:06.972Z,102423.19
2023-09-25T16:52:33.485Z,102424.16
2023-09-25T16:55:00.046Z,102426.00
2023-09-25T16:57:26.609Z,102430.53
2023-09-25T16:59:53.030Z,102432.38
2023-09-25T17:02:19.870Z,102429.84
2023-09-25T17:04:46.550Z,102429.00
2023-09-25T17:07:14.169Z,102437.19
2023-09-25T17:09:40.673Z,102433.00
2023-09-25T17:12:07.304Z,102440.34
2023-09-25T17:14:33.761Z,102438.66
2023-09-25T17:17:00.328Z,102436.97
2023-09-25T17:19:26.797Z,102436.97
2023-09-25T17:21:53.382Z,102441.47
2023-09-25T17:24:19.882Z,102438.94
2023-09-25T17:26:46.306Z,102437.94
2023-09-25T17:29:12.742Z,102439.94
2023-09-25T17:31:39.359Z,102453.34
2023-09-25T17:34:05.982Z,102451.38
2023-09-25T17:36:32.616Z,102445.16
2023-09-25T17:38:59.037Z,102447.00
2023-09-25T17:41:28.834Z,102442.63
2023-09-25T17:43:55.421Z,102442.91
2023-09-25T17:46:21.950Z,102447.56
2023-09-25T17:48:48.936Z,102444.38
2023-09-25T17:51:15.519Z,102456.66
2023-09-25T17:53:41.989Z,102449.72
2023-09-25T17:56:09.969Z,102453.56
2023-09-25T17:58:36.755Z,102451.28
2023-09-25T18:01:03.364Z,102453.47
2023-09-25T18:03:30.249Z,102438.31
2023-09-25T18:05:57.262Z,102442.97
2023-09-25T18:08:23.823Z,102453.84
2023-09-25T18:10:50.373Z,102454.00
2023-09-25T18:13:18.081Z,102455.00
2023-09-25T18:15:46.011Z,102453.44
2023-09-25T18:18:12.784Z,102454.56
2023-09-25T18:20:39.263Z,102460.97
2023-09-25T18:23:05.790Z,102462.78
2023-09-25T18:25:32.763Z,102461.25
2023-09-25T18:27:59.539Z,102463.06
2023-09-25T18:30:28.136Z,102464.91
2023-09-25T18:32:55.338Z,102460.53
2023-09-25T18:35:21.874Z,102467.88
2023-09-25T18:37:48.368Z,102460.97
2023-09-25T18:40:14.888Z,102466.47
2023-09-25T18:42:43.135Z,102470.13
2023-09-25T18:45:11.202Z,102469.47
2023-09-25T18:47:37.782Z,102466.22
2023-09-25T18:50:04.804Z,102473.56
2023-09-25T18:52:35.997Z,102466.66
2023-09-25T18:55:03.845Z,102467.63
2023-09-25T18:57:30.442Z,102467.78
2023-09-25T18:59:56.899Z,102465.94
2023-09-25T19:02:23.408Z,102466.94
2023-09-25T19:04:52.594Z,102460.03
2023-09-25T19:07:20.464Z,102468.22
2023-09-25T19:09:46.954Z,102468.22
2023-09-25T19:12:14.008Z,102465.53
2023-09-25T19:14:40.979Z,102466.69
2023-09-25T19:17:07.736Z,102459.91
2023-09-25T19:19:34.259Z,102463.72
2023-09-25T19:22:00.753Z,102460.50
2023-09-25T19:24:27.588Z,102461.75
2023-09-25T19:26:54.115Z,102459.22
2023-09-25T19:29:20.616Z,102460.06
2023-09-25T19:31:47.194Z,102461.91
2023-09-25T19:34:14.020Z,102461.75
2023-09-25T19:36:42.528Z,102463.59
2023-09-25T19:39:09.288Z,102455.53
2023-09-25T19:41:35.832Z,102463.44
2023-09-25T19:44:02.301Z,102458.09
2023-09-25T19:46:29.874Z,102466.28
2023-09-25T19:48:56.435Z,102465.69
2023-09-25T19:51:22.908Z,102463.16
2023-09-25T19:53:49.671Z,102459.94
2023-09-25T19:56:16.343Z,102465.72
2023-09-25T19:58:43.376Z,102466.72
2023-09-25T20:01:13.921Z,102476.56
2023-09-25T20:03:40.632Z,102480.25
2023-09-25T20:06:07.130Z,102472.34
2023-09-25T20:08:33.614Z,102475.13
2023-09-25T20:11:00.733Z,102473.47
2023-09-25T20:13:27.399Z,102474.44
2023-09-25T20:15:54.678Z,102480.66
2023-09-25T20:18:21.805Z,102482.50
2023-09-25T20:20:52.036Z,102476.28
2023-09-25T20:23:18.539Z,102477.53
2023-09-25T20:25:45.019Z,102482.19
2023-09-25T20:28:11.570Z,102476.97
2023-09-25T20:30:38.251Z,102482.78
2023-09-25T20:33:04.869Z,102474.16
2023-09-25T20:35:31.385Z,102475.16
2023-09-25T20:37:59.404Z,102482.19
2023-09-25T20:40:26.028Z,102485.16
2023-09-25T20:42:52.575Z,102483.59
2023-09-25T20:45:19.220Z,102489.94
2023-09-25T20:47:45.682Z,102489.09
2023-09-25T20:50:12.372Z,102484.84
2023-09-25T20:52:38.875Z,102478.63
2023-09-25T20:55:05.777Z,102473.28
2023-09-25T20:57:32.401Z,102483.00
2023-09-25T20:59:58.965Z,102475.69
2023-09-25T21:02:25.404Z,102480.91
2023-09-25T21:04:51.861Z,102483.47
2023-09-25T21:07:18.348Z,102496.72
2023-09-25T21:09:44.847Z,102485.56
2023-09-25T21:12:11.328Z,102480.34
2023-09-25T21:14:38.015Z,102483.16
2023-09-25T21:17:05.180Z,102482.31
2023-09-25T21:19:31.756Z,102478.78
2023-09-25T21:21:58.410Z,102492.16
2023-09-25T21:24:24.896Z,102496.69
2023-09-25T21:26:52.030Z,102488.09
2023-09-25T21:29:18.508Z,102492.88
2023-09-25T21:31:47.042Z,102484.84
2023-09-25T21:34:13.620Z,102486.22
2023-09-25T21:36:40.113Z,102484.38
2023-09-25T21:39:06.567Z,102473.81
2023-09-25T21:41:33.066Z,102488.59
2023-09-25T21:43:59.685Z,102485.47
2023-09-25T21:46:26.348Z,102489.28
2023-09-25T21:48:52.979Z,102482.09
2023-09-25T21:51:19.473Z,102478.16
2023-09-25T21:53:45.952Z,102480.84
2023-09-25T21:56:12.428Z,102472.94
2023-09-25T21:58:38.896Z,102467.00
2023-09-25T22:01:05.468Z,102466.38
2023-09-25T22:03:32.209Z,102477.84
2023-09-25T22:05:58.802Z,102478.78
2023-09-25T22:08:26.341Z,102482.75
2023-09-25T22:10:52.984Z,102480.78
2023-09-25T22:13:19.530Z,102463.31
2023-09-25T22:15:47.090Z,102473.41
2023-09-25T22:18:14.266Z,102467.09
2023-09-25T22:20:43.026Z,102474.28
2023-09-25T22:23:09.733Z,102471.31
2023-09-25T22:25:36.162Z,102477.06
2023-09-25T22:28:02.686Z,102465.19
2023-09-25T22:30:29.366Z,102457.00
2023-09-25T22:32:57.654Z,102459.06
2023-09-25T22:35:26.812Z,102467.38
2023-09-25T22:38:06.720Z,102462.03
2023-09-25T22:40:34.113Z,102458.66
2023-09-25T22:43:00.796Z,102466.94
2023-09-25T22:45:27.660Z,102461.00
2023-09-25T22:47:54.141Z,102455.06
2023-09-25T22:50:20.604Z,102458.75
2023-09-25T22:52:47.071Z,102459.13
2023-09-25T22:55:13.693Z,102450.13
2023-09-25T22:57:40.194Z,102449.41
2023-09-25T23:00:14.290Z,102454.75
2023-09-25T23:02:40.842Z,102447.00
2023-09-25T23:05:07.697Z,102452.34
2023-09-25T23:07:35.026Z,102442.63
2023-09-25T23:10:01.519Z,102441.91
2023-09-25T23:12:27.998Z,102441.91
2023-09-25T23:14:55.275Z,102438.53
2023-09-25T23:17:21.801Z,102446.69
2023-09-25T23:20:24.809Z,102444.88
2023-09-25T23:22:52.541Z,102452.03
2023-09-25T23:25:20.350Z,102441.22
2023-09-25T23:27:47.811Z,102443.31
2023-09-25T23:30:15.706Z,102433.84
2023-09-25T23:32:43.400Z,102436.97
2023-09-25T23:35:10.375Z,102439.66
2023-09-25T23:37:37.798Z,102442.44
2023-09-25T23:40:07.042Z,102440.03
2023-09-25T23:42:33.653Z,102443.31
2023-09-25T23:45:00.804Z,102441.84
2023-09-25T23:47:30.481Z,102440.28
2023-09-25T23:49:57.097Z,102441.53
2023-09-25T23:52:23.577Z,102439.97
2023-09-25T23:54:50.090Z,102438.13
2023-09-25T23:57:16.588Z,102438.84
